createdAt,value
2024-04-19T00:00:15.787Z,1.21
2024-04-19T00:01:15.828Z,2.10
2024-04-19T00:02:15.753Z,3.67
2024-04-19T00:03:15.830Z,5.13
2024-04-19T00:04:15.814Z,3.78
2024-04-19T00:05:15.762Z,2.94
2024-04-19T00:06:15.780Z,2.42
2024-04-19T00:07:15.756Z,2.04
2024-04-19T00:08:15.766Z,1.78
2024-04-19T00:09:15.815Z,1.51
2024-04-19T00:10:15.761Z,1.39
2024-04-19T00:11:15.797Z,1.26
2024-04-19T00:12:15.778Z,1.18
2024-04-19T00:13:15.769Z,1.10
2024-04-19T00:14:15.795Z,1.02
2024-04-19T00:15:15.884Z,0.95
2024-04-19T00:16:15.801Z,0.91
2024-04-19T00:17:15.765Z,0.88
2024-04-19T00:18:15.830Z,0.84
2024-04-19T00:19:15.771Z,0.80
2024-04-19T00:20:15.782Z,0.77
2024-04-19T00:21:15.813Z,0.75
2024-04-19T00:22:15.764Z,0.73
2024-04-19T00:23:15.770Z,0.70
2024-04-19T00:24:15.791Z,0.70
2024-04-19T00:25:15.802Z,0.68
2024-04-19T00:26:15.772Z,0.67
2024-04-19T00:27:15.818Z,0.65
2024-04-19T00:28:15.782Z,0.64
2024-04-19T00:29:15.780Z,0.63
2024-04-19T00:30:15.835Z,0.62
2024-04-19T00:31:15.790Z,0.61
2024-04-19T00:32:15.796Z,0.61
2024-04-19T00:33:15.876Z,0.59
2024-04-19T00:34:15.844Z,0.60
2024-04-19T00:35:15.806Z,0.57
2024-04-19T00:36:15.796Z,0.58
2024-04-19T00:37:15.786Z,0.57
2024-04-19T00:38:15.788Z,0.56
2024-04-19T00:39:15.817Z,0.56
2024-04-19T00:40:15.801Z,0.57
2024-04-19T00:41:15.800Z,0.56
2024-04-19T00:42:15.871Z,0.54
2024-04-19T00:43:15.793Z,0.54
2024-04-19T00:44:15.797Z,0.55
2024-04-19T00:45:15.814Z,0.54
2024-04-19T00:46:15.807Z,0.54
2024-04-19T00:47:15.860Z,0.55
2024-04-19T00:48:15.858Z,0.53
2024-04-19T00:49:15.802Z,0.52
2024-04-19T00:50:15.799Z,0.52
2024-04-19T00:51:15.876Z,0.52
2024-04-19T00:52:15.803Z,0.52
2024-04-19T00:53:15.839Z,0.53
2024-04-19T00:54:15.824Z,0.52
2024-04-19T00:55:15.805Z,0.52
2024-04-19T00:56:15.804Z,0.51
2024-04-19T00:57:15.810Z,0.51
2024-04-19T00:58:15.863Z,0.50
2024-04-19T00:59:15.826Z,0.51
2024-04-19T01:00:15.836Z,0.52
2024-04-19T01:01:15.885Z,0.51
2024-04-19T01:02:15.957Z,0.51
2024-04-19T01:03:15.901Z,0.51
2024-04-19T01:04:15.856Z,0.51
2024-04-19T01:05:15.815Z,0.51
2024-04-19T01:06:15.855Z,0.51
2024-04-19T01:07:15.816Z,0.51
2024-04-19T01:08:15.825Z,0.51
2024-04-19T01:09:15.826Z,0.51
2024-04-19T01:10:15.822Z,0.51
2024-04-19T01:11:15.853Z,0.50
2024-04-19T01:12:15.839Z,0.52
2024-04-19T01:13:15.828Z,0.51
2024-04-19T01:14:15.823Z,0.52
2024-04-19T01:15:15.907Z,0.51
2024-04-19T01:16:15.829Z,0.52
2024-04-19T01:17:15.854Z,0.51
2024-04-19T01:18:15.903Z,0.50
2024-04-19T01:19:15.957Z,0.51
2024-04-19T01:20:15.856Z,0.51
2024-04-19T01:21:15.855Z,0.51
2024-04-19T01:22:15.845Z,0.51
2024-04-19T01:23:15.847Z,0.50
2024-04-19T01:24:15.909Z,0.51
2024-04-19T01:25:15.843Z,0.51
2024-04-19T01:26:15.846Z,0.51
2024-04-19T01:27:15.892Z,0.51
2024-04-19T01:28:15.849Z,0.51
2024-04-19T01:29:15.842Z,0.52
2024-04-19T01:30:15.895Z,0.51
2024-04-19T01:31:15.850Z,0.50
2024-04-19T01:32:15.865Z,0.52
2024-04-19T01:33:16.098Z,0.50
2024-04-19T01:34:15.938Z,0.52
2024-04-19T01:35:15.856Z,0.51
2024-04-19T01:36:15.919Z,0.51
2024-04-19T01:37:15.860Z,0.50
2024-04-19T01:38:15.874Z,0.51
2024-04-19T01:39:15.901Z,0.51
2024-04-19T01:40:15.875Z,0.52
2024-04-19T01:41:15.876Z,0.51
2024-04-19T01:42:16.011Z,0.51
2024-04-19T01:43:15.877Z,0.51
2024-04-19T01:44:15.875Z,0.52
2024-04-19T01:45:15.907Z,0.50
2024-04-19T01:46:15.887Z,0.50
2024-04-19T01:47:15.902Z,0.51
2024-04-19T01:48:15.929Z,0.51
2024-04-19T01:49:15.882Z,0.51
2024-04-19T01:50:15.895Z,0.51
2024-04-19T01:51:15.903Z,0.51
2024-04-19T01:52:15.889Z,0.51
2024-04-19T01:53:15.890Z,0.51
2024-04-19T01:54:15.897Z,0.51
2024-04-19T01:55:16.082Z,0.51
2024-04-19T01:56:15.938Z,0.50
2024-04-19T01:57:15.995Z,0.51
2024-04-19T01:58:15.975Z,0.50
2024-04-19T01:59:16.015Z,0.50
2024-04-19T02:00:16.066Z,0.51
2024-04-19T02:01:16.062Z,0.51
2024-04-19T02:02:16.118Z,0.51
2024-04-19T02:03:16.116Z,0.50
2024-04-19T02:04:16.142Z,0.51
2024-04-19T02:05:16.104Z,0.51
2024-04-19T02:06:16.199Z,0.50
2024-04-19T02:07:16.138Z,0.50
2024-04-19T02:08:16.165Z,0.52
2024-04-19T02:09:16.256Z,0.51
2024-04-19T02:10:16.213Z,0.51
2024-04-19T02:11:16.258Z,0.50
2024-04-19T02:12:16.352Z,0.51
2024-04-19T02:13:16.261Z,0.51
2024-04-19T02:14:16.272Z,0.51
2024-04-19T02:15:16.381Z,0.51
2024-04-19T02:16:16.336Z,0.51
2024-04-19T02:17:16.381Z,0.51
2024-04-19T02:18:16.415Z,0.51
2024-04-19T02:19:16.387Z,0.51
2024-04-19T02:20:16.412Z,0.51
2024-04-19T02:21:16.473Z,0.51
2024-04-19T02:22:16.471Z,0.52
2024-04-19T02:23:16.469Z,0.51
2024-04-19T02:24:16.532Z,0.52
2024-04-19T02:25:16.536Z,0.51
2024-04-19T02:26:16.524Z,0.51
2024-04-19T02:27:16.561Z,0.51
2024-04-19T02:28:16.559Z,0.52
2024-04-19T02:29:16.610Z,0.51
2024-04-19T02:30:16.638Z,0.51
2024-04-19T02:31:16.636Z,0.51
2024-04-19T02:32:16.644Z,0.50
2024-04-19T02:33:16.759Z,0.50
2024-04-19T02:34:16.725Z,0.51
2024-04-19T02:35:16.724Z,0.50
2024-04-19T02:36:16.842Z,0.51
2024-04-19T02:37:16.753Z,0.51
2024-04-19T02:38:16.795Z,0.51
2024-04-19T02:39:16.826Z,0.51
2024-04-19T02:40:16.828Z,0.51
2024-04-19T02:41:16.849Z,0.50
2024-04-19T02:42:16.913Z,0.52
2024-04-19T02:43:16.876Z,0.51
2024-04-19T02:44:16.901Z,0.51
2024-04-19T02:45:16.967Z,0.50
2024-04-19T02:46:17.033Z,0.52
2024-04-19T02:47:17.030Z,0.51
2024-04-19T02:48:16.995Z,0.51
2024-04-19T02:49:16.991Z,0.51
2024-04-19T02:50:17.031Z,0.51
2024-04-19T02:51:17.092Z,0.51
2024-04-19T02:52:17.067Z,0.51
2024-04-19T02:53:17.095Z,0.52
2024-04-19T02:54:17.203Z,0.51
2024-04-19T02:55:17.138Z,0.51
2024-04-19T02:56:17.176Z,0.51
2024-04-19T02:57:17.250Z,0.51
2024-04-19T02:58:17.235Z,0.52
2024-04-19T02:59:17.246Z,0.51
2024-04-19T03:00:17.290Z,0.51
2024-04-19T03:01:17.318Z,0.51
2024-04-19T03:02:17.333Z,0.51
2024-04-19T03:03:17.433Z,0.51
2024-04-19T03:04:17.446Z,0.51
2024-04-19T03:05:17.415Z,0.52
2024-04-19T03:06:17.474Z,0.52
2024-04-19T03:07:17.459Z,0.51
2024-04-19T03:08:17.492Z,0.51
2024-04-19T03:09:17.540Z,0.52
2024-04-19T03:10:17.553Z,0.52
2024-04-19T03:11:17.579Z,0.51
2024-04-19T03:12:17.844Z,0.50
2024-04-19T03:13:17.606Z,0.52
2024-04-19T03:14:17.624Z,0.52
2024-04-19T03:15:17.701Z,0.51
2024-04-19T03:16:17.700Z,0.52
2024-04-19T03:17:17.730Z,0.52
2024-04-19T03:18:17.841Z,0.53
2024-04-19T03:19:17.758Z,0.51
2024-04-19T03:20:17.781Z,0.51
2024-04-19T03:21:17.823Z,0.51
2024-04-19T03:22:17.854Z,0.52
2024-04-19T03:23:17.867Z,0.52
2024-04-19T03:24:17.910Z,0.51
2024-04-19T03:25:17.958Z,0.51
2024-04-19T03:26:18.066Z,0.52
2024-04-19T03:27:18.045Z,0.51
2024-04-19T03:28:18.001Z,0.52
2024-04-19T03:29:18.030Z,0.51
2024-04-19T03:30:18.070Z,0.53
2024-04-19T03:31:18.083Z,0.52
2024-04-19T03:32:18.099Z,0.52
2024-04-19T03:33:18.309Z,0.51
2024-04-19T03:34:18.170Z,0.52
2024-04-19T03:35:18.183Z,0.51
2024-04-19T03:36:18.224Z,0.51
2024-04-19T03:37:18.237Z,0.52
2024-04-19T03:38:18.269Z,0.51
2024-04-19T03:39:18.320Z,0.51
2024-04-19T03:40:18.320Z,0.51
2024-04-19T03:41:18.339Z,0.51
2024-04-19T03:42:18.386Z,0.53
2024-04-19T03:43:18.412Z,0.52
2024-04-19T03:44:18.440Z,0.51
2024-04-19T03:45:18.536Z,0.52
2024-04-19T03:46:18.478Z,0.52
2024-04-19T03:47:18.584Z,0.51
2024-04-19T03:48:19.094Z,0.52
2024-04-19T03:49:18.592Z,0.52
2024-04-19T03:50:18.596Z,0.51
2024-04-19T03:51:18.652Z,0.52
2024-04-19T03:52:18.664Z,0.51
2024-04-19T03:53:18.669Z,0.52
2024-04-19T03:54:18.750Z,0.52
2024-04-19T03:55:18.773Z,0.52
2024-04-19T03:56:18.760Z,0.50
2024-04-19T03:57:18.846Z,0.51
2024-04-19T03:58:18.832Z,0.52
2024-04-19T03:59:18.843Z,0.51
2024-04-19T04:00:19.175Z,0.51
2024-04-19T04:01:18.985Z,0.52
2024-04-19T04:02:18.976Z,0.51
2024-04-19T04:03:19.083Z,0.52
2024-04-19T04:04:19.016Z,0.52
2024-04-19T04:05:19.024Z,0.51
2024-04-19T04:06:19.053Z,0.51
2024-04-19T04:07:19.101Z,0.52
2024-04-19T04:08:19.101Z,0.50
2024-04-19T04:09:19.171Z,0.51
2024-04-19T04:10:19.263Z,0.51
2024-04-19T04:11:19.238Z,0.51
2024-04-19T04:12:19.226Z,0.51
2024-04-19T04:13:19.271Z,0.50
2024-04-19T04:14:19.316Z,0.51
2024-04-19T04:15:19.373Z,0.51
2024-04-19T04:16:19.334Z,0.51
2024-04-19T04:17:19.380Z,0.51
2024-04-19T04:18:19.517Z,0.52
2024-04-19T04:19:20.694Z,0.50
2024-04-19T04:20:19.455Z,0.50
2024-04-19T04:21:19.482Z,0.51
2024-04-19T04:22:19.515Z,0.52
2024-04-19T04:23:19.540Z,0.51
2024-04-19T04:24:19.608Z,0.51
2024-04-19T04:25:19.651Z,0.51
2024-04-19T04:26:19.625Z,0.51
2024-04-19T04:27:19.686Z,0.51
2024-04-19T04:28:19.693Z,0.51
2024-04-19T04:29:19.730Z,0.51
2024-04-19T04:30:19.789Z,0.52
2024-04-19T04:31:19.777Z,0.51
2024-04-19T04:32:19.817Z,0.51
2024-04-19T04:33:27.021Z,0.50
2024-04-19T04:34:27.995Z,0.50
2024-04-19T04:35:28.007Z,0.50
2024-04-19T04:36:28.072Z,0.50
2024-04-19T04:37:27.990Z,0.50
2024-04-19T04:38:28.000Z,0.51
2024-04-19T04:39:28.013Z,0.51
2024-04-19T04:40:27.992Z,0.50
2024-04-19T04:41:28.001Z,0.51
2024-04-19T04:42:28.025Z,0.51
2024-04-19T04:43:28.010Z,0.50
2024-04-19T04:44:28.015Z,0.51
2024-04-19T04:45:28.040Z,0.50
2024-04-19T04:46:28.004Z,0.50
2024-04-19T04:47:28.112Z,0.51
2024-04-19T04:48:28.087Z,0.51
2024-04-19T04:49:28.019Z,0.52
2024-04-19T04:50:28.006Z,0.52
2024-04-19T04:51:28.020Z,0.51
2024-04-19T04:52:28.020Z,0.51
2024-04-19T04:53:28.020Z,0.51
2024-04-19T04:54:28.079Z,0.52
2024-04-19T04:55:28.015Z,0.51
2024-04-19T04:56:28.016Z,0.51
2024-04-19T04:57:28.038Z,0.51
2024-04-19T04:58:28.024Z,0.51
2024-04-19T04:59:28.027Z,0.51
2024-04-19T05:00:28.043Z,0.52
2024-04-19T05:01:28.078Z,0.52
2024-04-19T05:02:28.090Z,0.51
2024-04-19T05:03:28.127Z,0.51
2024-04-19T05:04:28.147Z,0.51
2024-04-19T05:05:28.141Z,0.51
2024-04-19T05:06:28.217Z,0.51
2024-04-19T05:07:28.216Z,0.53
2024-04-19T05:08:28.267Z,0.52
2024-04-19T05:09:28.305Z,0.52
2024-04-19T05:10:28.324Z,0.51
2024-04-19T05:11:28.363Z,0.52
2024-04-19T05:12:28.401Z,0.52
2024-04-19T05:13:28.621Z,0.52
2024-04-19T05:14:28.436Z,0.52
2024-04-19T05:15:28.477Z,0.52
2024-04-19T05:16:28.490Z,0.51
2024-04-19T05:17:28.600Z,0.51
2024-04-19T05:18:28.615Z,0.51
2024-04-19T05:19:28.582Z,0.52
2024-04-19T05:20:28.629Z,0.51
2024-04-19T05:21:28.654Z,0.52
2024-04-19T05:22:28.673Z,0.51
2024-04-19T05:23:29.124Z,0.52
2024-04-19T05:24:28.747Z,0.52
2024-04-19T05:25:28.777Z,0.52
2024-04-19T05:26:28.809Z,0.52
2024-04-19T05:27:28.871Z,0.51
2024-04-19T05:28:28.872Z,0.51
2024-04-19T05:29:28.882Z,0.51
2024-04-19T05:30:28.929Z,0.52
2024-04-19T05:31:28.936Z,0.51
2024-04-19T05:32:29.133Z,0.53
2024-04-19T05:33:29.035Z,0.52
2024-04-19T05:34:29.046Z,0.52
2024-04-19T05:35:29.074Z,0.51
2024-04-19T05:36:29.101Z,0.52
2024-04-19T05:37:29.130Z,0.51
2024-04-19T05:38:29.161Z,0.52
2024-04-19T05:39:29.231Z,0.52
2024-04-19T05:40:29.220Z,0.50
2024-04-19T05:41:29.271Z,0.50
2024-04-19T05:42:31.779Z,0.50
2024-04-19T05:43:29.336Z,0.50
2024-04-19T05:44:29.316Z,0.48
2024-04-19T05:45:29.658Z,0.46
2024-04-19T05:46:29.316Z,0.44
2024-04-19T05:47:29.342Z,0.42
2024-04-19T05:48:29.358Z,0.50
2024-04-19T05:49:29.412Z,0.50
2024-04-19T05:50:29.641Z,0.50
2024-04-19T05:51:29.415Z,0.50
2024-04-19T05:52:29.334Z,0.51
2024-04-19T05:53:29.331Z,0.50
2024-04-19T05:54:29.335Z,0.51
2024-04-19T05:55:29.657Z,0.51
2024-04-19T05:56:29.374Z,0.50
2024-04-19T05:57:29.384Z,0.50
2024-04-19T05:58:29.335Z,0.50
2024-04-19T05:59:32.627Z,0.50
2024-04-19T06:00:32.681Z,0.50
2024-04-19T06:01:32.560Z,0.50
2024-04-19T06:02:29.440Z,0.50
2024-04-19T06:03:29.418Z,0.50
2024-04-19T06:04:29.341Z,0.47
2024-04-19T06:05:29.676Z,0.46
2024-04-19T06:06:29.359Z,0.45
2024-04-19T06:07:29.332Z,0.50
2024-04-19T06:08:32.524Z,0.52
2024-04-19T06:09:29.389Z,0.51
2024-04-19T06:10:30.425Z,0.50
2024-04-19T06:11:29.369Z,0.50
2024-04-19T06:12:29.380Z,0.48
2024-04-19T06:13:29.355Z,0.48
2024-04-19T06:14:29.353Z,0.51
2024-04-19T06:15:29.404Z,0.51
2024-04-19T06:16:29.372Z,0.50
2024-04-19T06:17:29.510Z,0.50
2024-04-19T06:18:29.581Z,0.51
2024-04-19T06:19:29.608Z,0.51
2024-04-19T06:20:29.656Z,0.51
2024-04-19T06:21:29.769Z,0.52
2024-04-19T06:22:29.875Z,0.50
2024-04-19T06:23:29.853Z,0.50
2024-04-19T06:24:29.956Z,0.51
2024-04-19T06:25:29.965Z,0.52
2024-04-19T06:26:30.040Z,0.52
2024-04-19T06:27:30.107Z,0.52
2024-04-19T06:28:30.095Z,0.52
2024-04-19T06:29:30.654Z,0.51
2024-04-19T06:30:30.272Z,0.51
2024-04-19T06:31:30.293Z,0.50
2024-04-19T06:32:30.351Z,0.51
2024-04-19T06:33:30.409Z,0.51
2024-04-19T06:34:30.430Z,0.52
2024-04-19T06:35:30.482Z,0.51
2024-04-19T06:36:30.539Z,0.51
2024-04-19T06:37:30.673Z,0.52
2024-04-19T06:38:30.616Z,0.52
2024-04-19T06:39:30.698Z,0.51
2024-04-19T06:40:30.745Z,0.51
2024-04-19T06:41:31.184Z,0.51
2024-04-19T06:42:30.756Z,0.51
2024-04-19T06:43:30.729Z,0.52
2024-04-19T06:44:31.102Z,0.52
2024-04-19T06:45:31.185Z,0.52
2024-04-19T06:46:30.760Z,0.52
2024-04-19T06:47:30.882Z,0.52
2024-04-19T06:48:38.506Z,0.51
2024-04-19T06:49:31.240Z,0.51
2024-04-19T06:50:31.903Z,0.51
2024-04-19T06:51:31.728Z,0.51
2024-04-19T06:52:30.958Z,0.52
2024-04-19T06:53:30.995Z,0.52
2024-04-19T06:54:31.229Z,0.51
2024-04-19T06:55:31.105Z,0.53
2024-04-19T06:56:31.160Z,0.50
2024-04-19T06:57:31.258Z,0.53
2024-04-19T06:58:31.310Z,0.52
2024-04-19T06:59:31.676Z,0.51
2024-04-19T07:01:30.574Z,0.52
2024-04-19T07:02:31.688Z,0.52
2024-04-19T07:03:31.795Z,0.52
2024-04-19T07:04:32.369Z,0.52
2024-04-19T07:05:31.753Z,0.52
2024-04-19T07:06:40.298Z,0.53
2024-04-19T07:07:32.340Z,0.53
2024-04-19T07:08:32.480Z,0.53
2024-04-19T07:09:32.358Z,0.53
2024-04-19T07:10:32.262Z,0.54
2024-04-19T07:11:32.496Z,0.53
2024-04-19T07:12:32.312Z,0.53
2024-04-19T07:13:32.424Z,0.53
2024-04-19T07:14:32.495Z,0.53
2024-04-19T07:15:32.330Z,0.53
2024-04-19T07:16:32.853Z,0.51
2024-04-19T07:17:32.388Z,0.52
2024-04-19T07:18:32.197Z,0.51
2024-04-19T07:19:31.994Z,0.51
2024-04-19T07:20:32.460Z,0.50
2024-04-19T07:21:32.628Z,0.53
2024-04-19T07:22:32.243Z,0.51
2024-04-19T07:23:32.493Z,0.50
2024-04-19T07:24:32.590Z,0.51
2024-04-19T07:25:37.956Z,0.52
2024-04-19T07:26:32.478Z,0.52
2024-04-19T07:27:42.877Z,0.52
2024-04-19T07:28:32.392Z,0.51
2024-04-19T07:29:32.540Z,0.52
2024-04-19T07:30:32.631Z,0.51
2024-04-19T07:31:32.462Z,0.49
2024-04-19T07:32:32.516Z,0.49
2024-04-19T07:33:32.224Z,0.50
2024-04-19T07:34:32.092Z,0.50
2024-04-19T07:35:32.065Z,0.52
2024-04-19T07:36:33.134Z,0.52
2024-04-19T07:37:38.017Z,0.51
2024-04-19T07:38:32.261Z,0.51
2024-04-19T07:39:32.212Z,0.51
2024-04-19T07:40:32.089Z,0.51
2024-04-19T07:41:32.138Z,0.51
2024-04-19T07:42:32.137Z,0.51
2024-04-19T07:43:32.117Z,0.51
2024-04-19T07:44:32.228Z,0.50
2024-04-19T07:45:33.166Z,0.52
2024-04-19T07:46:32.090Z,0.52
2024-04-19T07:47:32.122Z,0.52
2024-04-19T07:48:33.243Z,0.52
2024-04-19T07:49:32.134Z,0.50
2024-04-19T07:50:32.094Z,0.51
2024-04-19T07:51:32.150Z,0.52
2024-04-19T07:52:33.213Z,0.53
2024-04-19T07:53:32.183Z,0.53
2024-04-19T07:54:32.801Z,0.52
2024-04-19T07:55:32.329Z,0.52
2024-04-19T07:56:32.405Z,0.52
2024-04-19T07:57:32.524Z,0.53
2024-04-19T07:58:34.316Z,0.52
2024-04-19T07:59:32.529Z,0.54
2024-04-19T08:00:32.566Z,0.51
2024-04-19T08:01:32.538Z,0.53
2024-04-19T08:02:32.573Z,0.52
2024-04-19T08:03:32.574Z,0.52
2024-04-19T08:04:32.613Z,0.52
2024-04-19T08:05:32.553Z,0.52
2024-04-19T08:06:32.542Z,0.52
2024-04-19T08:07:39.793Z,0.53
2024-04-19T08:08:32.526Z,0.53
2024-04-19T08:09:32.554Z,0.54
2024-04-19T08:10:34.721Z,0.54
2024-04-19T08:11:32.559Z,0.53
2024-04-19T08:12:32.553Z,0.53
2024-04-19T08:13:32.538Z,0.53
2024-04-19T08:14:32.558Z,0.52
2024-04-19T08:15:32.544Z,0.54
2024-04-19T08:16:32.572Z,0.52
2024-04-19T08:17:32.710Z,0.51
2024-04-19T08:18:32.654Z,0.51
2024-04-19T08:19:32.579Z,0.52
2024-04-19T08:20:32.546Z,0.52
2024-04-19T08:21:32.619Z,0.50
2024-04-19T08:22:32.557Z,0.50
2024-04-19T08:23:32.553Z,0.52
2024-04-19T08:24:32.574Z,0.52
2024-04-19T08:25:32.553Z,0.52
2024-04-19T08:26:32.569Z,0.52
2024-04-19T08:27:32.547Z,0.51
2024-04-19T08:28:32.566Z,0.51
2024-04-19T08:29:35.564Z,0.52
2024-04-19T08:30:32.566Z,0.51
2024-04-19T08:31:32.562Z,0.50
2024-04-19T08:32:32.767Z,0.52
2024-04-19T08:33:32.635Z,0.50
2024-04-19T08:34:32.567Z,0.50
2024-04-19T08:35:32.570Z,0.50
2024-04-19T08:36:32.609Z,0.51
2024-04-19T08:37:32.570Z,0.52
2024-04-19T08:38:33.563Z,0.52
2024-04-19T08:39:32.644Z,0.51
2024-04-19T08:40:32.578Z,0.51
2024-04-19T08:41:32.630Z,0.51
2024-04-19T08:42:32.743Z,0.51
2024-04-19T08:43:32.756Z,0.52
2024-04-19T08:44:32.799Z,0.52
2024-04-19T08:45:33.249Z,0.52
2024-04-19T08:46:32.951Z,0.52
2024-04-19T08:47:33.136Z,0.53
2024-04-19T08:48:33.349Z,0.53
2024-04-19T08:49:33.204Z,0.53
2024-04-19T08:50:33.217Z,0.55
2024-04-19T08:51:50.300Z,0.54
2024-04-19T08:52:55.335Z,0.54
2024-04-19T08:53:33.573Z,0.54
2024-04-19T08:54:33.749Z,0.54
2024-04-19T08:55:33.302Z,0.54
2024-04-19T08:56:33.291Z,0.53
2024-04-19T08:57:33.302Z,0.53
2024-04-19T08:58:33.329Z,0.52
2024-04-19T08:59:33.773Z,0.53
2024-04-19T09:00:33.351Z,0.54
2024-04-19T09:01:33.419Z,0.52
2024-04-19T09:02:33.340Z,0.53
2024-04-19T09:03:33.437Z,0.53
2024-04-19T09:04:33.440Z,0.52
2024-04-19T09:05:33.299Z,0.52
2024-04-19T09:06:33.331Z,0.52
2024-04-19T09:07:33.324Z,0.53
2024-04-19T09:08:33.328Z,0.51
2024-04-19T09:09:33.339Z,0.52
2024-04-19T09:10:33.400Z,0.53
2024-04-19T09:11:33.433Z,0.54
2024-04-19T09:12:33.683Z,0.53
2024-04-19T09:13:33.608Z,0.51
2024-04-19T09:14:33.666Z,0.52
2024-04-19T09:15:33.781Z,0.52
2024-04-19T09:16:41.104Z,0.51
2024-04-19T09:17:34.032Z,0.51
2024-04-19T09:18:33.752Z,0.51
2024-04-19T09:19:33.718Z,0.50
2024-04-19T09:20:33.724Z,0.51
2024-04-19T09:21:37.015Z,0.49
2024-04-19T09:22:33.727Z,0.47
2024-04-19T09:23:33.734Z,0.44
2024-04-19T09:24:33.775Z,0.43
2024-04-19T09:25:33.750Z,0.42
2024-04-19T09:26:33.736Z,0.40
2024-04-19T09:27:33.753Z,0.49
2024-04-19T09:28:33.730Z,0.52
2024-04-19T09:29:34.729Z,0.50
2024-04-19T09:30:33.767Z,0.50
2024-04-19T09:31:33.737Z,0.51
2024-04-19T09:32:33.801Z,0.52
2024-04-19T09:33:33.851Z,0.55
2024-04-19T09:34:33.837Z,0.56
2024-04-19T09:35:34.247Z,0.59
2024-04-19T09:36:33.772Z,0.61
2024-04-19T09:37:33.750Z,0.64
2024-04-19T09:38:33.741Z,0.68
2024-04-19T09:39:33.755Z,0.74
2024-04-19T09:40:34.249Z,0.78
2024-04-19T09:41:33.753Z,0.83
2024-04-19T09:42:33.845Z,0.82
2024-04-19T09:43:33.920Z,0.83
2024-04-19T09:44:33.811Z,0.77
2024-04-19T09:45:34.268Z,0.78
2024-04-19T09:46:33.933Z,0.71
2024-04-19T09:47:33.940Z,0.69
2024-04-19T09:48:34.030Z,0.67
2024-04-19T09:49:34.044Z,0.67
2024-04-19T09:50:34.293Z,0.64
2024-04-19T09:51:34.137Z,0.61
2024-04-19T09:52:34.169Z,0.63
2024-04-19T09:53:34.210Z,0.63
2024-04-19T09:54:34.303Z,0.63
2024-04-19T09:55:34.259Z,0.65
2024-04-19T09:56:34.323Z,0.60
2024-04-19T09:57:34.398Z,0.55
2024-04-19T09:58:34.402Z,0.55
2024-04-19T09:59:34.750Z,0.53
2024-04-19T10:00:34.535Z,0.52
2024-04-19T10:01:34.813Z,0.51
2024-04-19T10:02:36.799Z,0.51
2024-04-19T10:03:34.665Z,0.51
2024-04-19T10:04:34.656Z,0.52
2024-04-19T10:05:34.590Z,0.54
2024-04-19T10:06:34.567Z,0.59
2024-04-19T10:07:34.557Z,0.64
2024-04-19T10:08:34.564Z,0.71
2024-04-19T10:09:34.913Z,0.75
2024-04-19T10:10:34.545Z,0.81
2024-04-19T10:11:34.785Z,0.89
2024-04-19T10:12:34.624Z,1.00
2024-04-19T10:13:34.576Z,1.03
2024-04-19T10:14:34.546Z,1.09
2024-04-19T10:15:34.591Z,1.14
2024-04-19T10:16:34.634Z,1.17
2024-04-19T10:17:34.611Z,1.19
2024-04-19T10:18:34.670Z,1.20
2024-04-19T10:19:45.079Z,1.22
2024-04-19T10:20:34.578Z,1.22
2024-04-19T10:21:34.668Z,1.24
2024-04-19T10:22:34.704Z,1.27
2024-04-19T10:23:34.591Z,1.36
2024-04-19T10:24:34.639Z,1.46
2024-04-19T10:25:34.588Z,1.49
2024-04-19T10:26:34.588Z,1.51
2024-04-19T10:27:35.942Z,1.54
2024-04-19T10:28:34.654Z,1.55
2024-04-19T10:29:34.648Z,1.60
2024-04-19T10:30:36.947Z,1.60
2024-04-19T10:31:34.715Z,1.67
2024-04-19T10:32:34.694Z,1.70
2024-04-19T10:33:34.708Z,1.72
2024-04-19T10:34:34.807Z,1.76
2024-04-19T10:35:34.672Z,1.75
2024-04-19T10:36:34.685Z,1.80
2024-04-19T10:37:34.672Z,1.81
2024-04-19T10:38:34.702Z,1.87
2024-04-19T10:39:34.747Z,1.89
2024-04-19T10:40:34.686Z,1.86
2024-04-19T10:41:34.696Z,1.91
2024-04-19T10:42:34.752Z,1.92
2024-04-19T10:43:34.686Z,1.95
2024-04-19T10:44:34.690Z,1.99
2024-04-19T10:45:34.728Z,2.01
2024-04-19T10:46:34.770Z,2.03
2024-04-19T10:47:34.788Z,2.08
2024-04-19T10:48:34.804Z,2.11
2024-04-19T10:49:34.784Z,2.09
2024-04-19T10:50:34.727Z,2.12
2024-04-19T10:51:34.720Z,2.14
2024-04-19T10:52:34.698Z,2.15
2024-04-19T10:53:34.751Z,2.09
2024-04-19T10:54:34.799Z,2.20
2024-04-19T10:55:34.701Z,2.18
2024-04-19T10:56:34.711Z,2.22
2024-04-19T10:57:34.807Z,2.20
2024-04-19T10:58:34.716Z,2.24
2024-04-19T10:59:34.736Z,2.25
2024-04-19T11:00:34.818Z,2.23
2024-04-19T11:01:34.849Z,2.24
2024-04-19T11:02:34.762Z,2.24
2024-04-19T11:03:34.831Z,2.30
2024-04-19T11:04:35.837Z,2.28
2024-04-19T11:05:34.709Z,2.36
2024-04-19T11:06:34.746Z,2.30
2024-04-19T11:07:34.719Z,2.32
2024-04-19T11:08:34.722Z,2.32
2024-04-19T11:09:34.755Z,2.29
2024-04-19T11:10:34.714Z,2.36
2024-04-19T11:11:34.770Z,2.36
2024-04-19T11:12:34.832Z,2.38
2024-04-19T11:13:34.910Z,2.36
2024-04-19T11:14:35.277Z,2.45
2024-04-19T11:15:43.702Z,2.39
2024-04-19T11:16:35.083Z,2.39
2024-04-19T11:17:35.133Z,2.40
2024-04-19T11:18:35.510Z,2.43
2024-04-19T11:19:35.460Z,2.51
2024-04-19T11:20:35.083Z,2.50
2024-04-19T11:21:35.180Z,2.56
2024-04-19T11:22:35.059Z,2.60
2024-04-19T11:23:35.080Z,2.52
2024-04-19T11:24:35.711Z,2.58
2024-04-19T11:25:35.361Z,2.55
2024-04-19T11:26:35.044Z,2.51
2024-04-19T11:27:35.100Z,2.54
2024-04-19T11:28:35.121Z,2.56
2024-04-19T11:29:35.060Z,2.52
2024-04-19T11:30:35.060Z,2.54
2024-04-19T11:31:35.079Z,2.59
2024-04-19T11:32:35.079Z,2.55
2024-04-19T11:33:35.166Z,2.57
2024-04-19T11:34:35.108Z,2.56
2024-04-19T11:35:35.089Z,2.62
2024-04-19T11:36:35.281Z,2.54
2024-04-19T11:37:35.202Z,2.61
2024-04-19T11:38:35.277Z,2.58
2024-04-19T11:39:35.360Z,2.58
2024-04-19T11:40:35.397Z,2.59
2024-04-19T11:41:35.432Z,2.60
2024-04-19T11:42:35.510Z,2.63
2024-04-19T11:43:35.540Z,2.59
2024-04-19T11:44:35.930Z,2.64
2024-04-19T11:45:35.679Z,2.64
2024-04-19T11:46:35.733Z,2.62
2024-04-19T11:47:35.821Z,2.65
2024-04-19T11:48:35.909Z,2.57
2024-04-19T11:49:35.889Z,2.57
2024-04-19T11:50:35.948Z,2.65
2024-04-19T11:51:36.237Z,2.58
2024-04-19T11:52:36.060Z,2.57
2024-04-19T11:53:36.119Z,2.58
2024-04-19T11:54:36.265Z,2.61
2024-04-19T11:55:36.213Z,2.60
2024-04-19T11:56:36.257Z,2.67
2024-04-19T11:57:36.350Z,2.63
2024-04-19T11:58:36.372Z,2.62
2024-04-19T11:59:36.489Z,2.62
2024-04-19T12:00:36.488Z,2.62
2024-04-19T12:01:36.554Z,2.63
2024-04-19T12:02:36.579Z,2.61
2024-04-19T12:03:36.825Z,2.62
2024-04-19T12:04:38.045Z,2.59
2024-04-19T12:05:36.656Z,2.60
2024-04-19T12:06:36.676Z,2.60
2024-04-19T12:07:36.644Z,2.62
2024-04-19T12:08:36.648Z,2.63
2024-04-19T12:09:36.660Z,2.68
2024-04-19T12:10:36.658Z,2.63
2024-04-19T12:11:36.635Z,2.69
2024-04-19T12:13:15.135Z,2.65
2024-04-19T12:14:23.635Z,2.65
2024-04-19T12:15:23.238Z,2.66
2024-04-19T12:16:16.431Z,2.66
2024-04-19T12:16:42.992Z,2.66
2024-04-19T12:17:36.822Z,2.66
2024-04-19T12:18:36.916Z,2.71
2024-04-19T12:19:36.966Z,2.77
2024-04-19T12:20:47.038Z,2.84
2024-04-19T12:21:37.458Z,2.66
2024-04-19T12:22:41.910Z,2.66
2024-04-19T12:23:37.733Z,2.66
2024-04-19T12:24:38.258Z,2.66
2024-04-19T12:25:37.023Z,2.68
2024-04-19T12:26:36.965Z,2.77
2024-04-19T12:27:36.814Z,2.82
2024-04-19T12:28:38.519Z,2.87
2024-04-19T12:29:36.804Z,2.66
2024-04-19T12:30:36.862Z,2.68
2024-04-19T12:31:36.739Z,2.72
2024-04-19T12:32:36.778Z,2.70
2024-04-19T12:33:36.876Z,2.81
2024-04-19T12:34:37.254Z,2.75
2024-04-19T12:35:36.830Z,2.81
2024-04-19T12:36:36.791Z,2.76
2024-04-19T12:37:36.705Z,2.71
2024-04-19T12:38:36.711Z,2.78
2024-04-19T12:39:36.736Z,2.75
2024-04-19T12:40:39.115Z,2.69
2024-04-19T12:41:36.712Z,2.69
2024-04-19T12:42:36.785Z,2.70
2024-04-19T12:43:36.725Z,2.71
2024-04-19T12:44:36.775Z,2.70
2024-04-19T12:45:36.734Z,2.76
2024-04-19T12:46:38.133Z,2.76
2024-04-19T12:47:36.781Z,2.76
2024-04-19T12:48:36.831Z,2.76
2024-04-19T12:49:36.728Z,2.74
2024-04-19T12:50:36.731Z,2.73
2024-04-19T12:51:36.751Z,2.73
2024-04-19T12:52:37.625Z,2.69
2024-04-19T12:53:36.730Z,2.78
2024-04-19T12:54:36.745Z,2.72
2024-04-19T12:55:36.737Z,2.74
2024-04-19T12:56:36.754Z,2.70
2024-04-19T12:57:36.780Z,2.71
2024-04-19T12:58:37.726Z,2.73
2024-04-19T12:59:36.740Z,2.73
2024-04-19T13:00:36.820Z,2.66
2024-04-19T13:01:36.913Z,2.61
2024-04-19T13:02:36.791Z,2.66
2024-04-19T13:03:36.956Z,2.59
2024-04-19T13:04:36.746Z,2.62
2024-04-19T13:05:36.749Z,2.66
2024-04-19T13:06:36.794Z,2.64
2024-04-19T13:07:36.744Z,2.79
2024-04-19T13:08:37.111Z,2.81
2024-04-19T13:09:36.774Z,2.92
2024-04-19T13:10:37.786Z,2.97
2024-04-19T13:11:36.905Z,3.10
2024-04-19T13:12:36.799Z,3.27
2024-04-19T13:13:36.735Z,3.26
2024-04-19T13:14:36.749Z,3.38
2024-04-19T13:15:36.764Z,3.49
2024-04-19T13:16:36.790Z,3.54
2024-04-19T13:17:36.746Z,3.64
2024-04-19T13:18:36.789Z,3.62
2024-04-19T13:19:36.743Z,3.71